Airfield :
LOGIN :

Register | Disclaimer

   EN    FR    IT 

 










Legend :    VFR   Marginal VFR   IFR   Intensive IFR   Very Intensive IFR
Visi :
Ceiling :
>= 8 km
>= 3000ft
5 to 8 km
1000 to 3000 ft
1500m to 5 km
500 to 1000 ft
800 to 1500m
200 to 500 ft
< 800m
< 200 ft
Symbols :   Thunderstorms  Fog  Heavy snow  Heavy precipitations  Wind > 20 kt
SIGMETs :     Misc.  Thunderstorms  Icing  Turbulence  Mountain Waves  Volcanic Ashes






- Airport Elevation : 28 ft
- IATA code : SOZ


LFKS - Solenzara

CURRENT METAR :
  • 102330Z AUTO 35010KT CAVOK 11/00 Q1019

EXPIRED METARs :
  • 102300Z AUTO 34009KT CAVOK 12/00 Q1019
  • 102230Z AUTO 34010KT CAVOK 13/01 Q1019
  • 102200Z AUTO 35010KT CAVOK 12/01 Q1019
  • 102130Z AUTO 34010KT CAVOK 12/02 Q1018
  • 102100Z AUTO 35009KT 9999 FEW062 12/02 Q1018

TAF TAF LFKS
Valid from the 10 at 21:00 until the 11 at 21:00 UTC


102000Z 1021/1121 35010KT CAVOK



MET'MAP, your aeronautical weather chart ! - Copyright ORBIFLY December 2007 - Disclaimer

ORBIFLY MET'MAP TEAM :

Programming & Development : Alexandra Zaïnal
Concept & original design : Baudouin d'Aumeries
Assistance for programming : Marc-Olivier Méhu
Technical & hardware support : Manuel Goepfert

Contact : metmap@orbifly.com




SOURCES & CREDITS :

   NOAA